Time;durP1;ratioP1;P1;durP2;ratioP2;P2;SDS_P1;SDS_P2;PMS_P1;PMS_P2;Temp;Humidity;BMP_temperature;BMP_pressure;BME280_temperature;BME280_humidity;BME280_pressure;Samples;Min_cycle;Max_cycle;Signal;HPM_P1;HPM_P2
2023/05/26 00:02:04;;;;;;;8.18;2.33;;;20.70;1.00;;;;;;5012695;28;20038;-49
2023/05/26 00:04:31;;;;;;;9.23;3.22;;;20.70;1.00;;;;;;5004300;28;20046;-49
2023/05/26 00:06:58;;;;;;;9.85;2.50;;;20.70;1.00;;;;;;4996857;28;20490;-49
2023/05/26 00:09:25;;;;;;;8.82;1.85;;;20.70;1.00;;;;;;5014643;28;20080;-49
2023/05/26 00:11:52;;;;;;;8.68;2.15;;;20.70;1.00;;;;;;5012423;28;20104;-48
2023/05/26 00:14:19;;;;;;;7.07;2.08;;;20.70;1.00;;;;;;5012405;28;20038;-48
2023/05/26 00:16:46;;;;;;;8.80;2.33;;;20.70;1.00;;;;;;5012364;28;20041;-49
2023/05/26 00:19:17;;;;;;;12.18;2.10;;;20.70;1.00;;;;;;5012335;28;20044;-47
2023/05/26 00:21:44;;;;;;;8.18;2.70;;;20.70;1.00;;;;;;5012503;28;20038;-50
2023/05/26 00:24:10;;;;;;;8.93;2.38;;;20.60;1.00;;;;;;5012241;28;20053;-51
2023/05/26 00:26:37;;;;;;;10.00;2.03;;;20.60;1.00;;;;;;5012412;28;20401;-47
2023/05/26 00:29:05;;;;;;;11.73;2.38;;;20.60;1.00;;;;;;5012216;28;20120;-47
2023/05/26 00:31:40;;;;;;;12.63;2.20;;;20.70;1.00;;;;;;4994503;28;20480;-50
2023/05/26 00:34:07;;;;;;;6.18;1.65;;;20.60;1.00;;;;;;4994514;28;20068;-50
2023/05/26 00:36:35;;;;;;;7.20;2.65;;;20.60;1.00;;;;;;5012166;28;20110;-50
2023/05/26 00:39:03;;;;;;;10.57;2.65;;;20.60;1.00;;;;;;5015593;28;20069;-48
2023/05/26 00:41:30;;;;;;;5.20;1.83;;;20.60;1.00;;;;;;5012044;28;20482;-46
2023/05/26 00:43:57;;;;;;;7.53;2.22;;;20.60;1.00;;;;;;4994328;28;20041;-48
2023/05/26 00:46:24;;;;;;;8.32;2.85;;;20.60;1.00;;;;;;5001472;28;20509;-49
2023/05/26 00:48:51;;;;;;;8.73;1.80;;;20.60;1.00;;;;;;5013149;28;20056;-46
2023/05/26 00:51:18;;;;;;;13.38;2.60;;;20.60;1.00;;;;;;5012112;28;20038;-52
2023/05/26 00:53:45;;;;;;;5.47;1.83;;;20.60;1.00;;;;;;5012053;28;20043;-49
2023/05/26 00:56:16;;;;;;;6.18;1.77;;;20.60;1.00;;;;;;4994557;28;20042;-46
2023/05/26 00:58:43;;;;;;;10.05;2.03;;;20.60;1.00;;;;;;5012143;28;20065;-48
2023/05/26 01:01:12;;;;;;;8.20;2.17;;;20.50;1.00;;;;;;4994721;28;20037;-52
2023/05/26 01:03:39;;;;;;;9.45;3.00;;;20.50;1.00;;;;;;4994172;28;20057;-50
2023/05/26 01:06:06;;;;;;;7.28;2.15;;;20.50;1.00;;;;;;4975076;28;20053;-46
2023/05/26 01:08:33;;;;;;;5.50;1.35;;;20.50;1.00;;;;;;4992198;28;20502;-48
2023/05/26 01:11:12;;;;;;;9.32;2.45;;;20.50;1.00;;;;;;4987641;28;20133;-48
2023/05/26 01:14:13;;;;;;;9.52;2.60;;;20.50;1.00;;;;;;4996413;28;20104;-49
2023/05/26 01:16:52;;;;;;;7.68;2.63;;;20.50;1.00;;;;;;4993970;28;20512;-46
2023/05/26 01:19:40;;;;;;;9.27;2.47;;;20.50;1.00;;;;;;4998024;28;20038;-46
2023/05/26 01:22:23;;;;;;;4.80;1.63;;;20.50;1.00;;;;;;5015725;28;20045;-51
2023/05/26 01:25:09;;;;;;;6.78;1.85;;;20.50;1.00;;;;;;4997764;28;20046;-47
2023/05/26 01:27:46;;;;;;;8.63;3.00;;;20.50;1.00;;;;;;4997978;28;20072;-46
2023/05/26 01:30:15;;;;;;;6.75;1.98;;;20.40;1.00;;;;;;5015644;28;20572;-46
2023/05/26 01:32:47;;;;;;;3.65;1.85;;;20.40;1.00;;;;;;4997294;28;20560;-47
2023/05/26 01:35:15;;;;;;;8.07;2.38;;;20.40;1.00;;;;;;5015219;28;20084;-46
2023/05/26 01:37:45;;;;;;;7.15;2.15;;;20.40;1.00;;;;;;5015022;28;20548;-46
2023/05/26 01:40:12;;;;;;;9.95;2.47;;;20.40;1.00;;;;;;5015446;28;20038;-46
2023/05/26 01:42:45;;;;;;;5.13;1.85;;;20.40;1.00;;;;;;5016902;28;20041;-46
2023/05/26 01:45:20;;;;;;;8.75;2.15;;;20.40;1.00;;;;;;5015249;28;20048;-49
2023/05/26 01:47:50;;;;;;;6.63;1.33;;;20.40;1.00;;;;;;4997423;28;20133;-48
2023/05/26 01:50:19;;;;;;;5.18;1.70;;;20.40;1.00;;;;;;5005519;28;20038;-46
2023/05/26 01:52:51;;;;;;;8.55;2.55;;;20.40;1.00;;;;;;4997277;28;20042;-46
2023/05/26 01:55:21;;;;;;;5.57;2.42;;;20.40;1.00;;;;;;5009266;28;20117;-46
2023/05/26 01:57:48;;;;;;;7.65;2.00;;;20.40;1.00;;;;;;4977662;28;20042;-46
2023/05/26 02:00:23;;;;;;;10.05;2.08;;;20.40;1.00;;;;;;4977744;28;20092;-46
2023/05/26 02:02:51;;;;;;;13.50;2.35;;;20.40;1.00;;;;;;4977817;28;20071;-47
2023/05/26 02:05:18;;;;;;;8.82;2.55;;;20.40;1.00;;;;;;4980035;28;20511;-45
2023/05/26 02:07:46;;;;;;;9.43;2.70;;;20.30;1.00;;;;;;4977455;28;20149;-49
2023/05/26 02:10:13;;;;;;;6.13;1.88;;;20.30;1.00;;;;;;4995149;28;20542;-46
2023/05/26 02:12:39;;;;;;;6.10;2.50;;;20.30;1.00;;;;;;4977570;28;20065;-49
2023/05/26 02:15:07;;;;;;;7.93;2.28;;;20.30;1.00;;;;;;5009335;28;20054;-46
2023/05/26 02:17:34;;;;;;;4.85;2.00;;;20.30;1.00;;;;;;4996853;28;20129;-46
2023/05/26 02:20:02;;;;;;;11.23;3.05;;;20.30;1.00;;;;;;4997014;28;20061;-46
2023/05/26 02:22:30;;;;;;;9.07;2.28;;;20.30;1.00;;;;;;4997000;28;20497;-48
2023/05/26 02:24:57;;;;;;;5.80;2.15;;;20.30;1.00;;;;;;5018169;28;20055;-46
2023/05/26 02:27:24;;;;;;;9.15;2.33;;;20.30;1.00;;;;;;5005562;28;20046;-46
2023/05/26 02:29:51;;;;;;;6.35;2.33;;;20.30;1.00;;;;;;4996540;28;20042;-45
2023/05/26 02:32:18;;;;;;;5.35;1.70;;;20.30;1.00;;;;;;5014110;28;20080;-48
2023/05/26 02:34:45;;;;;;;8.10;2.13;;;20.30;1.00;;;;;;4988416;28;20565;-46
2023/05/26 02:37:12;;;;;;;10.25;2.70;;;20.30;1.00;;;;;;5014295;28;20038;-45
2023/05/26 02:39:40;;;;;;;7.88;2.40;;;20.30;1.00;;;;;;5013936;28;20409;-46
2023/05/26 02:42:07;;;;;;;8.25;1.67;;;20.20;1.00;;;;;;4984807;28;20494;-46
2023/05/26 02:44:34;;;;;;;8.13;2.00;;;20.20;1.00;;;;;;4981965;28;20057;-47
2023/05/26 02:47:00;;;;;;;9.15;2.15;;;20.20;1.00;;;;;;5014074;28;20397;-45
2023/05/26 02:49:27;;;;;;;11.55;2.40;;;20.20;1.00;;;;;;4996158;28;20511;-45
2023/05/26 02:51:54;;;;;;;6.43;1.50;;;20.20;1.00;;;;;;5006265;28;20199;-45
2023/05/26 02:54:21;;;;;;;9.52;2.25;;;20.20;1.00;;;;;;5001964;28;20544;-46
2023/05/26 02:56:48;;;;;;;6.57;2.42;;;20.20;1.00;;;;;;4996302;28;20046;-45
2023/05/26 02:59:15;;;;;;;7.53;1.90;;;20.20;1.00;;;;;;4995997;28;20136;-45
2023/05/26 03:01:41;;;;;;;6.50;2.22;;;20.20;1.00;;;;;;4996161;28;20125;-45
2023/05/26 03:04:08;;;;;;;10.80;1.73;;;20.20;1.00;;;;;;4993800;28;20073;-46
2023/05/26 03:06:35;;;;;;;7.95;1.85;;;20.20;1.00;;;;;;4976752;28;20046;-45
2023/05/26 03:09:02;;;;;;;4.65;2.05;;;20.10;1.00;;;;;;4987248;28;20524;-46
2023/05/26 03:11:29;;;;;;;10.52;3.22;;;20.20;1.00;;;;;;4995795;28;20042;-45
2023/05/26 03:13:56;;;;;;;7.43;1.92;;;20.10;1.00;;;;;;4995947;28;20476;-46
2023/05/26 03:16:24;;;;;;;8.82;2.05;;;20.10;1.00;;;;;;4999863;28;20042;-46
2023/05/26 03:18:51;;;;;;;6.85;1.85;;;20.10;1.00;;;;;;4995252;28;20128;-46
2023/05/26 03:21:19;;;;;;;6.13;1.85;;;20.10;1.00;;;;;;5013199;28;20042;-45
2023/05/26 03:24:06;;;;;;;7.03;2.25;;;20.10;1.00;;;;;;4995441;28;20042;-47
2023/05/26 03:26:33;;;;;;;8.02;2.05;;;20.10;1.00;;;;;;4995483;28;20067;-47
2023/05/26 03:29:00;;;;;;;7.43;1.98;;;20.10;1.00;;;;;;5012856;28;20064;-45
2023/05/26 03:31:27;;;;;;;3.88;1.77;;;20.10;1.00;;;;;;5012121;28;20125;-47
2023/05/26 03:33:54;;;;;;;6.15;1.85;;;20.10;1.00;;;;;;4994930;28;20403;-47
2023/05/26 03:36:21;;;;;;;8.35;2.25;;;20.10;1.00;;;;;;4995335;28;20105;-48
2023/05/26 03:38:50;;;;;;;5.93;1.88;;;20.10;1.00;;;;;;4994615;28;20050;-47
2023/05/26 03:41:17;;;;;;;8.85;1.90;;;20.10;1.00;;;;;;4995085;28;20172;-47
2023/05/26 03:43:52;;;;;;;6.85;2.40;;;20.10;1.00;;;;;;4991370;28;20140;-46
2023/05/26 03:46:19;;;;;;;13.73;2.75;;;20.10;1.00;;;;;;4992686;28;20069;-47
2023/05/26 03:48:46;;;;;;;9.70;2.38;;;20.00;1.00;;;;;;5014926;28;20050;-47
2023/05/26 03:51:13;;;;;;;13.88;1.98;;;20.00;1.00;;;;;;5009532;28;20456;-47
2023/05/26 03:53:41;;;;;;;8.70;2.35;;;20.00;1.00;;;;;;5011278;28;20053;-50
2023/05/26 03:56:08;;;;;;;7.32;2.00;;;20.00;1.00;;;;;;4994757;28;20029;-50
2023/05/26 03:58:35;;;;;;;8.90;1.77;;;20.00;1.00;;;;;;4978870;28;20046;-47
2023/05/26 04:01:03;;;;;;;7.28;1.48;;;20.00;1.00;;;;;;4994851;28;20050;-47
2023/05/26 04:03:31;;;;;;;7.78;2.10;;;20.00;1.00;;;;;;5013179;28;20037;-48
2023/05/26 04:05:59;;;;;;;10.05;2.17;;;20.00;1.00;;;;;;4978136;28;20062;-47
2023/05/26 04:08:27;;;;;;;9.35;2.08;;;20.00;1.00;;;;;;4984073;28;20076;-47
2023/05/26 04:10:54;;;;;;;14.40;1.90;;;20.00;1.00;;;;;;4994377;28;20073;-47
2023/05/26 04:13:23;;;;;;;17.02;2.38;;;20.00;1.00;;;;;;4992795;28;20661;-48
2023/05/26 04:15:50;;;;;;;10.05;3.10;;;20.00;1.00;;;;;;4991299;28;20098;-46
2023/05/26 04:18:17;;;;;;;15.85;4.20;;;20.00;1.00;;;;;;4996585;28;20040;-45
2023/05/26 04:20:44;;;;;;;16.42;3.15;;;19.90;1.00;;;;;;4988458;28;20046;-46
2023/05/26 04:23:11;;;;;;;13.60;3.33;;;19.90;1.00;;;;;;4986502;28;20042;-45
2023/05/26 04:25:38;;;;;;;11.18;3.42;;;19.90;1.00;;;;;;4985715;28;20137;-48
2023/05/26 04:28:34;;;;;;;8.82;3.50;;;19.90;1.00;;;;;;5007441;28;20042;-47
2023/05/26 04:31:24;;;;;;;9.07;2.60;;;19.80;1.00;;;;;;4998826;28;20519;-46
2023/05/26 04:34:14;;;;;;;13.30;2.60;;;19.80;1.00;;;;;;4976301;28;20081;-46
2023/05/26 04:36:49;;;;;;;11.35;2.35;;;19.70;1.00;;;;;;4989279;28;20141;-47
2023/05/26 04:39:16;;;;;;;13.82;3.30;;;19.70;1.00;;;;;;4994306;28;20042;-46
2023/05/26 04:41:43;;;;;;;15.98;3.55;;;19.70;1.00;;;;;;5012023;28;20038;-46
2023/05/26 04:44:11;;;;;;;12.18;2.45;;;19.70;1.00;;;;;;4994434;28;20496;-49
2023/05/26 04:46:38;;;;;;;17.92;3.72;;;19.70;1.00;;;;;;5012128;28;20099;-46
2023/05/26 04:49:09;;;;;;;15.65;3.05;;;19.70;1.00;;;;;;4994347;28;21609;-47
2023/05/26 04:51:37;;;;;;;13.80;2.95;;;19.70;1.00;;;;;;4996927;28;20050;-46
2023/05/26 04:54:04;;;;;;;13.43;2.83;;;19.70;1.00;;;;;;4990248;28;20137;-46
2023/05/26 04:56:31;;;;;;;7.28;2.33;;;19.70;1.00;;;;;;4998518;28;20038;-46
2023/05/26 04:58:59;;;;;;;11.43;2.47;;;19.60;1.00;;;;;;4996633;28;20962;-46
2023/05/26 05:01:26;;;;;;;15.05;3.20;;;19.60;1.00;;;;;;4993032;28;20049;-46
2023/05/26 05:04:12;;;;;;;8.30;3.28;;;19.60;1.00;;;;;;4992331;28;20041;-47
2023/05/26 05:06:46;;;;;;;12.25;2.97;;;19.60;1.00;;;;;;4998316;28;20062;-48
2023/05/26 05:09:13;;;;;;;20.13;3.22;;;19.60;1.00;;;;;;4990076;28;20041;-46
2023/05/26 05:11:40;;;;;;;15.13;3.72;;;19.60;1.00;;;;;;4998422;28;20584;-47
2023/05/26 05:14:08;;;;;;;10.55;3.13;;;19.60;1.00;;;;;;4997756;28;20127;-46
2023/05/26 05:16:34;;;;;;;14.73;4.38;;;19.60;1.00;;;;;;4997978;28;20034;-46
2023/05/26 05:19:01;;;;;;;18.52;2.75;;;19.60;1.00;;;;;;4997687;28;20042;-46
2023/05/26 05:21:30;;;;;;;11.45;2.78;;;19.60;1.00;;;;;;4998014;28;20046;-48
2023/05/26 05:23:56;;;;;;;8.32;2.38;;;19.60;1.00;;;;;;4997810;28;20050;-48
2023/05/26 05:26:24;;;;;;;11.38;3.08;;;19.60;1.00;;;;;;4997795;28;20548;-47
2023/05/26 05:28:50;;;;;;;11.98;3.10;;;19.60;1.00;;;;;;4997719;28;20132;-46
2023/05/26 05:31:31;;;;;;;13.73;2.20;;;19.60;1.00;;;;;;4997740;28;20132;-47
2023/05/26 05:33:57;;;;;;;11.65;2.40;;;19.60;1.00;;;;;;4997638;28;20042;-47
2023/05/26 05:36:24;;;;;;;9.77;2.72;;;19.60;1.00;;;;;;4997594;28;20056;-46
2023/05/26 05:38:52;;;;;;;11.52;3.05;;;19.60;1.00;;;;;;4997581;28;20046;-48
2023/05/26 05:41:19;;;;;;;8.52;2.67;;;19.60;1.00;;;;;;4997679;28;20458;-48
2023/05/26 05:43:45;;;;;;;10.05;2.83;;;19.60;1.00;;;;;;4997384;28;20069;-48
2023/05/26 05:46:13;;;;;;;9.68;2.88;;;19.60;1.00;;;;;;4997345;28;20041;-48
2023/05/26 05:49:00;;;;;;;9.35;2.15;;;19.60;1.00;;;;;;5010840;28;20071;-47
2023/05/26 05:51:33;;;;;;;11.90;1.90;;;19.60;1.00;;;;;;4997607;28;20129;-48
2023/05/26 05:54:00;;;;;;;8.00;2.97;;;19.60;1.00;;;;;;4997577;28;20049;-47
2023/05/26 05:56:28;;;;;;;9.23;2.20;;;19.60;1.00;;;;;;4997289;28;20481;-49
2023/05/26 05:58:55;;;;;;;9.93;2.20;;;19.70;1.00;;;;;;4997128;28;20088;-47
2023/05/26 06:01:23;;;;;;;8.18;2.10;;;19.70;1.00;;;;;;4996489;28;20100;-47
2023/05/26 06:03:50;;;;;;;7.30;1.92;;;19.70;1.00;;;;;;5000098;28;20099;-47
2023/05/26 06:06:17;;;;;;;8.68;2.28;;;19.70;1.00;;;;;;4977622;28;20046;-47
2023/05/26 06:08:44;;;;;;;7.60;2.35;;;19.70;1.00;;;;;;4977681;28;20065;-47
2023/05/26 06:11:12;;;;;;;12.80;2.33;;;19.70;1.00;;;;;;4977475;28;20085;-50
2023/05/26 06:13:42;;;;;;;15.35;3.00;;;19.70;1.00;;;;;;4977500;28;20043;-49
2023/05/26 06:16:11;;;;;;;11.60;2.55;;;19.70;1.00;;;;;;4977300;28;20046;-47
2023/05/26 06:18:38;;;;;;;11.82;3.33;;;19.70;1.00;;;;;;4977164;28;20054;-47
2023/05/26 06:21:05;;;;;;;7.53;1.95;;;19.70;1.00;;;;;;4977389;28;20046;-46
2023/05/26 06:23:33;;;;;;;8.52;2.75;;;19.80;1.00;;;;;;4977364;28;20038;-46
2023/05/26 06:26:00;;;;;;;8.07;2.30;;;19.80;1.00;;;;;;4976973;28;20070;-46
2023/05/26 06:28:27;;;;;;;6.15;2.90;;;19.80;1.00;;;;;;4976923;28;20050;-47
2023/05/26 06:30:53;;;;;;;8.25;2.35;;;19.80;1.00;;;;;;4985454;28;20042;-49
2023/05/26 06:33:41;;;;;;;7.45;2.75;;;19.90;1.00;;;;;;5013473;28;20049;-48
2023/05/26 06:36:10;;;;;;;10.50;2.58;;;19.80;1.00;;;;;;4996356;28;20124;-48
2023/05/26 06:38:37;;;;;;;7.70;2.03;;;19.90;1.00;;;;;;4996504;28;20052;-48
2023/05/26 06:41:06;;;;;;;6.13;1.88;;;19.90;1.00;;;;;;4996486;28;20405;-50
2023/05/26 06:43:35;;;;;;;8.75;2.38;;;19.90;1.00;;;;;;4990716;28;20556;-48
2023/05/26 06:46:03;;;;;;;7.05;2.35;;;19.90;1.00;;;;;;4994353;28;20049;-48
2023/05/26 06:48:30;;;;;;;7.65;1.88;;;19.90;1.00;;;;;;4983216;28;20057;-60
2023/05/26 06:51:26;;;;;;;7.95;2.67;;;19.90;1.00;;;;;;4989449;28;20070;-47
2023/05/26 06:53:53;;;;;;;6.93;3.03;;;19.90;1.00;;;;;;4994164;28;20054;-46
2023/05/26 06:56:19;;;;;;;8.27;2.10;;;19.90;1.00;;;;;;5005726;28;20033;-47
2023/05/26 06:58:49;;;;;;;7.45;2.45;;;19.90;1.00;;;;;;4988649;28;20066;-50
2023/05/26 07:01:16;;;;;;;7.50;1.58;;;19.90;1.00;;;;;;4995417;28;20117;-47
2023/05/26 07:03:44;;;;;;;6.88;2.20;;;20.00;1.00;;;;;;4997782;28;20041;-47
2023/05/26 07:06:11;;;;;;;7.60;2.20;;;20.00;1.00;;;;;;4978546;28;20097;-48
2023/05/26 07:08:39;;;;;;;8.63;2.13;;;20.00;1.00;;;;;;4990679;28;20068;-46
2023/05/26 07:11:16;;;;;;;8.68;2.10;;;20.00;1.00;;;;;;4995958;28;20133;-49
2023/05/26 07:13:46;;;;;;;4.90;2.17;;;20.00;1.00;;;;;;4994644;28;20662;-48
2023/05/26 07:16:13;;;;;;;5.47;1.80;;;20.00;1.00;;;;;;4995615;28;20049;-48
2023/05/26 07:18:39;;;;;;;6.22;1.73;;;20.00;1.00;;;;;;4995736;28;20065;-46
2023/05/26 07:21:06;;;;;;;7.88;2.42;;;20.10;1.00;;;;;;4995673;28;20147;-47
2023/05/26 07:23:33;;;;;;;6.75;3.05;;;20.10;1.00;;;;;;4995487;28;20100;-48
2023/05/26 07:26:02;;;;;;;8.70;1.90;;;20.00;1.00;;;;;;4995401;28;20382;-46
2023/05/26 07:28:30;;;;;;;8.23;2.20;;;20.10;1.00;;;;;;4995402;28;20052;-46
2023/05/26 07:30:57;;;;;;;8.93;2.40;;;20.10;1.00;;;;;;5012981;28;20049;-47
2023/05/26 07:33:28;;;;;;;6.97;2.55;;;20.10;1.00;;;;;;4995301;28;20104;-48
2023/05/26 07:35:57;;;;;;;10.50;1.90;;;20.10;1.00;;;;;;4995041;28;20045;-47
2023/05/26 07:38:24;;;;;;;6.28;1.92;;;20.10;1.00;;;;;;4995224;28;20042;-47
2023/05/26 07:40:51;;;;;;;7.53;2.63;;;20.20;1.00;;;;;;5012857;28;20042;-47
2023/05/26 07:43:18;;;;;;;8.13;2.25;;;20.20;1.00;;;;;;5012839;28;20026;-47
2023/05/26 07:45:45;;;;;;;7.07;2.35;;;20.20;1.00;;;;;;5012761;28;20056;-47
2023/05/26 07:48:14;;;;;;;7.20;2.53;;;20.20;1.00;;;;;;5012605;28;20045;-47
2023/05/26 07:50:41;;;;;;;7.25;1.95;;;20.20;1.00;;;;;;5012818;28;20494;-47
2023/05/26 07:53:08;;;;;;;6.70;1.75;;;20.20;1.00;;;;;;5012765;28;20046;-47
2023/05/26 07:55:35;;;;;;;7.30;2.15;;;20.30;1.00;;;;;;5012618;28;20076;-47
2023/05/26 07:58:02;;;;;;;5.85;1.73;;;20.30;1.00;;;;;;5012387;28;20092;-47
2023/05/26 08:00:28;;;;;;;6.00;1.95;;;20.30;1.00;;;;;;5012783;28;20057;-47
2023/05/26 08:02:55;;;;;;;14.75;2.85;;;20.30;1.00;;;;;;5012503;28;20046;-48
2023/05/26 08:05:26;;;;;;;9.05;2.10;;;20.30;1.00;;;;;;5008293;28;20497;-49
2023/05/26 08:07:52;;;;;;;11.27;2.65;;;20.30;1.00;;;;;;5012475;28;20050;-47
2023/05/26 08:10:19;;;;;;;7.60;1.58;;;20.30;1.00;;;;;;5012547;28;20041;-47
2023/05/26 08:12:46;;;;;;;5.68;1.75;;;20.30;1.00;;;;;;5012290;28;20045;-48
2023/05/26 08:15:15;;;;;;;6.45;2.10;;;20.30;1.00;;;;;;5012224;28;20485;-47
2023/05/26 08:17:46;;;;;;;6.72;2.20;;;20.30;1.00;;;;;;4995734;28;20046;-47
2023/05/26 08:20:13;;;;;;;6.03;2.42;;;20.40;1.00;;;;;;5004271;28;20643;-59
2023/05/26 08:22:40;;;;;;;2.80;1.48;;;20.40;1.00;;;;;;5012410;28;20512;-46
2023/05/26 08:25:07;;;;;;;9.00;2.45;;;20.30;1.00;;;;;;5011921;28;20500;-47
2023/05/26 08:27:34;;;;;;;9.07;2.08;;;20.40;1.00;;;;;;5012265;28;20519;-47
2023/05/26 08:30:00;;;;;;;8.23;1.73;;;20.40;1.00;;;;;;5012340;28;20049;-45
2023/05/26 08:32:27;;;;;;;5.50;2.25;;;20.40;1.00;;;;;;5012179;28;20046;-48
2023/05/26 08:34:54;;;;;;;10.15;1.95;;;20.40;1.00;;;;;;5012008;28;20130;-47
2023/05/26 08:37:21;;;;;;;3.58;1.38;;;20.40;1.00;;;;;;5001395;28;20117;-48
2023/05/26 08:39:48;;;;;;;12.50;2.80;;;20.40;1.00;;;;;;5007349;28;20382;-46
2023/05/26 08:42:19;;;;;;;3.95;2.08;;;20.40;1.00;;;;;;5012130;28;20525;-46
2023/05/26 08:45:00;;;;;;;9.40;2.53;;;20.40;1.00;;;;;;5012128;28;20133;-45
2023/05/26 08:47:27;;;;;;;9.10;2.70;;;20.40;1.00;;;;;;5011998;28;20511;-46
2023/05/26 08:50:00;;;;;;;4.32;2.05;;;20.40;1.00;;;;;;5012003;28;20042;-46
2023/05/26 08:52:27;;;;;;;8.20;2.15;;;20.50;1.00;;;;;;5008634;28;20126;-46
2023/05/26 08:54:54;;;;;;;9.82;2.72;;;20.50;1.00;;;;;;5007805;28;20092;-46
2023/05/26 08:57:21;;;;;;;4.38;1.25;;;20.50;1.00;;;;;;5011635;28;20125;-46
2023/05/26 08:59:49;;;;;;;8.63;2.60;;;20.50;1.00;;;;;;5012170;28;20457;-47
2023/05/26 09:02:17;;;;;;;9.00;2.15;;;20.50;1.00;;;;;;5011872;28;20498;-46
2023/05/26 09:04:44;;;;;;;7.53;2.22;;;20.50;1.00;;;;;;5010217;28;20034;-47
2023/05/26 09:07:11;;;;;;;7.15;2.30;;;20.50;1.00;;;;;;4992264;28;20056;-47
2023/05/26 09:09:40;;;;;;;7.65;1.85;;;20.60;1.00;;;;;;4992210;28;20397;-48
2023/05/26 09:12:11;;;;;;;7.10;2.08;;;20.60;1.00;;;;;;4992099;28;20104;-49
2023/05/26 09:14:39;;;;;;;7.70;2.75;;;20.60;1.00;;;;;;4991926;28;20038;-48
2023/05/26 09:17:11;;;;;;;11.50;2.30;;;20.60;1.00;;;;;;4992118;28;20046;-48
2023/05/26 09:19:38;;;;;;;8.10;2.22;;;20.60;1.00;;;;;;4992205;28;20042;-47
2023/05/26 09:22:07;;;;;;;7.00;1.75;;;20.60;1.00;;;;;;4992024;28;20465;-47
2023/05/26 09:24:48;;;;;;;9.88;2.50;;;20.60;1.00;;;;;;4992086;28;20038;-47
2023/05/26 09:27:17;;;;;;;8.07;2.53;;;20.60;1.00;;;;;;4992235;28;20062;-47
2023/05/26 09:30:02;;;;;;;8.52;2.75;;;20.70;1.00;;;;;;4992061;28;20475;-46
2023/05/26 09:32:31;;;;;;;7.55;2.00;;;20.60;1.00;;;;;;5003979;28;20038;-47
2023/05/26 09:35:03;;;;;;;6.63;2.15;;;20.60;1.00;;;;;;5011390;28;20096;-50
2023/05/26 09:37:31;;;;;;;6.88;2.10;;;20.60;1.00;;;;;;5013703;28;20049;-48
2023/05/26 09:40:15;;;;;;;6.10;1.80;;;20.70;1.00;;;;;;5015211;28;20049;-47
2023/05/26 09:42:52;;;;;;;7.10;2.20;;;20.60;1.00;;;;;;5015210;28;20442;-47
2023/05/26 09:45:19;;;;;;;8.52;2.20;;;20.60;1.00;;;;;;5014993;28;20432;-47
2023/05/26 09:47:57;;;;;;;9.77;2.47;;;20.70;1.00;;;;;;5015068;28;20136;-47
2023/05/26 09:50:24;;;;;;;7.85;1.92;;;20.60;1.00;;;;;;5015081;28;20124;-47
2023/05/26 09:52:51;;;;;;;7.65;2.15;;;20.70;1.00;;;;;;5014923;28;20049;-47
2023/05/26 09:55:18;;;;;;;9.07;2.28;;;20.60;1.00;;;;;;5014808;28;20041;-47
2023/05/26 09:57:48;;;;;;;5.82;1.98;;;20.70;1.00;;;;;;5014924;28;20038;-49
2023/05/26 10:00:18;;;;;;;4.07;1.83;;;20.60;1.00;;;;;;5014978;28;20396;-47
2023/05/26 10:02:46;;;;;;;10.57;1.88;;;20.60;1.00;;;;;;5014620;28;20046;-48
2023/05/26 10:05:14;;;;;;;7.55;2.00;;;20.60;1.00;;;;;;5010055;28;20405;-46
2023/05/26 10:07:42;;;;;;;11.20;2.80;;;20.70;1.00;;;;;;4995162;28;20050;-48
2023/05/26 10:10:15;;;;;;;6.57;1.83;;;20.60;1.00;;;;;;4995063;28;20031;-49
2023/05/26 10:12:43;;;;;;;;;;;20.70;1.00;;;;;;4995551;28;20038;-47
2023/05/26 10:15:10;;;;;;;9.27;2.17;;;20.70;1.00;;;;;;4994777;28;19968;-48
2023/05/26 10:17:38;;;;;;;7.07;1.70;;;20.70;1.00;;;;;;4994815;28;20557;-48
2023/05/26 10:20:06;;;;;;;9.18;2.08;;;20.70;1.00;;;;;;4994920;28;20452;-47
2023/05/26 10:23:02;;;;;;;7.57;1.88;;;20.70;1.00;;;;;;4994913;28;20034;-47
2023/05/26 10:25:56;;;;;;;7.30;2.05;;;20.70;1.00;;;;;;5006003;28;20132;-48
2023/05/26 10:28:38;;;;;;;7.50;2.00;;;20.70;1.00;;;;;;5014351;28;20041;-50
2023/05/26 10:31:05;;;;;;;6.35;2.03;;;20.70;1.00;;;;;;5014420;28;20045;-48
2023/05/26 10:33:39;;;;;;;7.45;2.85;;;20.70;1.00;;;;;;5014212;28;20059;-48
2023/05/26 10:36:08;;;;;;;7.03;2.55;;;20.70;1.00;;;;;;5014080;28;20033;-49
2023/05/26 10:38:37;;;;;;;7.47;1.80;;;20.70;1.00;;;;;;5006072;28;20034;-48
2023/05/26 10:41:28;;;;;;;5.53;2.05;;;20.70;1.00;;;;;;5014216;28;20038;-47
2023/05/26 10:43:55;;;;;;;10.38;3.00;;;20.70;1.00;;;;;;5013943;28;20718;-48
2023/05/26 10:46:22;;;;;;;8.07;2.30;;;20.70;1.00;;;;;;5014088;28;20113;-52
2023/05/26 10:48:57;;;;;;;9.88;2.80;;;20.70;1.00;;;;;;5013857;28;20042;-48
2023/05/26 10:51:26;;;;;;;6.82;2.00;;;20.70;1.00;;;;;;5013890;28;20121;-51
2023/05/26 10:53:56;;;;;;;5.40;2.33;;;20.70;1.00;;;;;;5013810;28;20515;-49
2023/05/26 10:56:40;;;;;;;10.00;2.03;;;20.70;1.00;;;;;;5013717;28;20042;-47
2023/05/26 10:59:06;;;;;;;6.95;2.17;;;20.70;1.00;;;;;;5005745;28;20077;-50
2023/05/26 11:01:33;;;;;;;8.52;2.33;;;20.70;1.00;;;;;;5013795;28;20042;-50
2023/05/26 11:04:10;;;;;;;8.05;2.22;;;20.70;1.00;;;;;;5017764;28;20477;-48
2023/05/26 11:06:50;;;;;;;7.85;2.35;;;20.70;1.00;;;;;;5006178;28;20053;-48
2023/05/26 11:09:26;;;;;;;6.57;1.80;;;20.70;1.00;;;;;;5013524;28;20042;-48
2023/05/26 11:11:55;;;;;;;9.45;2.17;;;20.70;1.00;;;;;;5013401;28;20493;-48
2023/05/26 11:14:33;;;;;;;9.18;1.95;;;20.70;1.00;;;;;;5013146;28;20048;-47
2023/05/26 11:17:04;;;;;;;9.18;2.72;;;20.70;1.00;;;;;;5013420;28;20038;-48
2023/05/26 11:19:36;;;;;;;9.77;2.10;;;20.70;1.00;;;;;;5013284;28;20052;-47
2023/05/26 11:22:08;;;;;;;9.35;1.90;;;20.70;1.00;;;;;;5005776;28;20042;-47
2023/05/26 11:24:36;;;;;;;16.15;2.40;;;20.70;1.00;;;;;;5013358;28;20053;-47
2023/05/26 11:27:05;;;;;;;7.65;2.40;;;20.70;1.00;;;;;;5013285;28;20037;-47
2023/05/26 11:29:32;;;;;;;10.35;2.03;;;20.70;1.00;;;;;;5012964;28;20041;-47
2023/05/26 11:31:59;;;;;;;11.18;1.98;;;20.70;1.00;;;;;;5013139;28;20404;-47
2023/05/26 11:34:26;;;;;;;9.35;2.35;;;20.70;1.00;;;;;;5004952;28;20065;-47
2023/05/26 11:36:53;;;;;;;11.00;2.45;;;20.70;1.00;;;;;;5013071;28;20495;-49
2023/05/26 11:39:21;;;;;;;9.80;3.03;;;20.70;1.00;;;;;;5012960;28;20076;-47
2023/05/26 11:41:49;;;;;;;8.20;2.35;;;20.70;1.00;;;;;;5013092;28;20088;-50
2023/05/26 11:44:16;;;;;;;9.88;2.33;;;20.70;1.00;;;;;;5012876;28;20065;-47
2023/05/26 11:46:44;;;;;;;5.93;2.38;;;20.70;1.00;;;;;;5012924;28;20056;-47
2023/05/26 11:49:14;;;;;;;10.15;2.10;;;20.70;1.00;;;;;;5012896;28;20133;-47
2023/05/26 11:51:50;;;;;;;8.90;2.60;;;20.70;1.00;;;;;;5012816;28;20120;-49
2023/05/26 11:54:18;;;;;;;10.13;2.10;;;20.70;1.00;;;;;;5012875;28;20038;-47
2023/05/26 11:56:46;;;;;;;8.68;1.63;;;20.70;1.00;;;;;;5012444;28;20441;-60
2023/05/26 11:59:20;;;;;;;9.30;3.22;;;20.70;1.00;;;;;;5012192;28;20140;-46
2023/05/26 12:01:47;;;;;;;7.18;2.28;;;20.70;1.00;;;;;;5012833;28;20034;-47
2023/05/26 12:04:25;;;;;;;7.13;2.03;;;20.70;1.00;;;;;;5017568;28;20052;-46
2023/05/26 12:06:51;;;;;;;5.68;2.10;;;20.70;1.00;;;;;;4992838;28;20494;-46
2023/05/26 12:09:20;;;;;;;7.30;2.58;;;20.70;1.00;;;;;;4992631;28;20077;-46
2023/05/26 12:11:50;;;;;;;5.70;1.35;;;20.70;1.00;;;;;;4992756;28;20520;-48
2023/05/26 12:14:17;;;;;;;8.15;2.83;;;20.70;1.00;;;;;;4992735;28;20520;-48
2023/05/26 12:16:46;;;;;;;7.22;1.88;;;20.70;1.00;;;;;;4992735;28;20038;-47
2023/05/26 12:19:17;;;;;;;9.05;3.25;;;20.70;1.00;;;;;;4992692;28;20046;-46
2023/05/26 12:21:50;;;;;;;7.35;1.85;;;20.70;1.00;;;;;;4992454;28;20034;-49
2023/05/26 12:24:34;;;;;;;8.43;2.40;;;20.60;1.00;;;;;;4992843;28;20038;-46
2023/05/26 12:27:11;;;;;;;8.65;1.40;;;20.70;1.00;;;;;;4975362;28;20056;-53
2023/05/26 12:29:43;;;;;;;10.02;2.65;;;20.60;1.00;;;;;;5004017;28;20038;-47
2023/05/26 12:32:10;;;;;;;11.05;2.10;;;20.70;1.00;;;;;;5004014;28;20069;-49
2023/05/26 12:34:39;;;;;;;5.60;3.03;;;20.60;1.00;;;;;;5012329;28;20041;-50
2023/05/26 12:37:06;;;;;;;11.35;2.28;;;20.70;1.00;;;;;;5012206;28;20041;-48
2023/05/26 12:39:33;;;;;;;6.82;2.20;;;20.60;1.00;;;;;;5011973;28;20454;-48
2023/05/26 12:42:03;;;;;;;5.40;1.83;;;20.60;1.00;;;;;;5012038;28;20038;-48
2023/05/26 12:44:30;;;;;;;8.73;1.83;;;20.60;1.00;;;;;;5012186;28;20070;-46
2023/05/26 12:46:56;;;;;;;5.88;2.08;;;20.60;1.00;;;;;;5012094;28;20042;-48
2023/05/26 12:49:23;;;;;;;6.82;2.15;;;20.60;1.00;;;;;;5011804;28;20037;-46
2023/05/26 12:51:50;;;;;;;6.38;1.75;;;20.60;1.00;;;;;;5011957;28;20053;-46
2023/05/26 12:54:17;;;;;;;10.18;2.40;;;20.60;1.00;;;;;;5012048;28;20065;-45
2023/05/26 12:56:44;;;;;;;6.72;2.38;;;20.60;1.00;;;;;;5011905;28;20164;-48
2023/05/26 12:59:11;;;;;;;6.53;1.85;;;20.60;1.00;;;;;;5012029;28;20038;-46
2023/05/26 13:01:47;;;;;;;10.13;2.67;;;20.60;1.00;;;;;;5012193;28;20034;-50
2023/05/26 13:04:15;;;;;;;7.07;1.80;;;20.60;1.00;;;;;;5017771;28;20049;-47
2023/05/26 13:06:42;;;;;;;9.45;2.97;;;20.60;1.00;;;;;;4992248;28;20125;-45
2023/05/26 13:09:11;;;;;;;8.45;2.65;;;20.60;1.00;;;;;;4974838;28;20046;-45